Time;durP1;ratioP1;P1;durP2;ratioP2;P2;SDS_P1;SDS_P2;PMS_P1;PMS_P2;Temp;Humidity;BMP_temperature;BMP_pressure;BME280_temperature;BME280_humidity;BME280_pressure;Samples;Min_cycle;Max_cycle;Signal;HPM_P1;HPM_P2
2021/07/20 00:00:26;;;;;;;19.13;11.50;;;16.70;99.90;;;;;;4860030;29;20559;-78
2021/07/20 00:02:58;;;;;;;19.30;10.50;;;16.60;99.90;;;;;;4859678;29;20985;-78
2021/07/20 00:05:27;;;;;;;17.80;11.73;;;16.60;99.90;;;;;;4860293;29;20892;-79
2021/07/20 00:08:00;;;;;;;17.10;11.00;;;16.60;99.90;;;;;;4859090;29;20520;-79
2021/07/20 00:10:35;;;;;;;20.43;11.30;;;16.60;99.90;;;;;;4860264;29;20485;-78
2021/07/20 00:13:05;;;;;;;15.63;11.90;;;16.60;99.90;;;;;;4860394;29;20649;-77
2021/07/20 00:15:35;;;;;;;15.10;10.00;;;16.50;99.90;;;;;;4858435;29;20468;-78
2021/07/20 00:18:11;;;;;;;19.07;10.47;;;16.40;99.90;;;;;;4866637;29;20455;-80
2021/07/20 00:20:39;;;;;;;13.70;9.90;;;16.40;99.90;;;;;;4860013;29;20487;-79
2021/07/20 00:23:06;;;;;;;14.80;10.80;;;16.30;99.90;;;;;;4875879;29;20559;-78
2021/07/20 00:25:34;;;;;;;16.93;10.57;;;16.30;99.90;;;;;;4860481;29;20500;-79
2021/07/20 00:28:01;;;;;;;14.10;9.93;;;16.20;99.90;;;;;;4861071;29;20788;-79
2021/07/20 00:30:29;;;;;;;17.60;10.43;;;16.20;99.90;;;;;;4861935;29;20460;-79
2021/07/20 00:32:57;;;;;;;17.60;10.83;;;16.20;99.90;;;;;;4861827;29;20450;-79
2021/07/20 00:35:26;;;;;;;17.70;9.97;;;16.20;99.90;;;;;;4870828;29;20482;-79
2021/07/20 00:37:53;;;;;;;16.97;11.73;;;16.20;99.90;;;;;;4875790;29;21007;-79
2021/07/20 00:40:20;;;;;;;15.17;10.20;;;16.10;99.90;;;;;;4868570;29;20476;-79
2021/07/20 00:42:54;;;;;;;15.47;9.40;;;16.10;99.90;;;;;;4861854;29;20988;-79
2021/07/20 00:45:21;;;;;;;17.43;9.63;;;16.00;99.90;;;;;;4875069;29;20472;-79
2021/07/20 00:47:48;;;;;;;15.90;11.80;;;16.00;99.90;;;;;;4861153;29;20476;-79
2021/07/20 00:50:22;;;;;;;15.17;10.57;;;16.00;99.90;;;;;;4875129;29;20554;-79
2021/07/20 00:52:52;;;;;;;15.00;9.07;;;15.90;99.90;;;;;;4861047;29;20429;-78
2021/07/20 00:55:22;;;;;;;16.87;11.10;;;15.90;99.90;;;;;;4860122;29;20484;-78
2021/07/20 00:57:52;;;;;;;15.60;10.83;;;15.80;99.90;;;;;;4859327;29;20530;-79
2021/07/20 01:00:21;;;;;;;16.27;10.70;;;15.80;99.90;;;;;;4859123;29;20528;-79
2021/07/20 01:02:51;;;;;;;20.70;11.70;;;15.80;99.90;;;;;;4865616;29;20458;-77
2021/07/20 01:05:22;;;;;;;16.83;10.30;;;15.70;99.90;;;;;;4860178;29;20472;-78
2021/07/20 01:07:52;;;;;;;16.70;11.90;;;15.70;99.90;;;;;;4859399;29;20443;-79
2021/07/20 01:10:20;;;;;;;13.63;10.67;;;15.70;99.90;;;;;;4860041;29;20564;-78
2021/07/20 01:12:54;;;;;;;19.63;12.50;;;15.70;99.90;;;;;;4883163;29;20434;-78
2021/07/20 01:15:23;;;;;;;16.27;11.60;;;15.60;99.90;;;;;;4896832;29;20485;-79
2021/07/20 01:17:55;;;;;;;18.47;11.53;;;15.60;99.90;;;;;;4878166;29;20435;-78
2021/07/20 01:20:27;;;;;;;12.30;9.53;;;15.60;99.90;;;;;;4864087;29;20478;-79
2021/07/20 01:23:20;;;;;;;13.33;10.73;;;15.60;99.90;;;;;;4858687;29;20432;-79
2021/07/20 01:25:51;;;;;;;18.83;11.00;;;15.60;99.90;;;;;;4857014;29;20478;-77
2021/07/20 01:28:22;;;;;;;15.63;11.30;;;15.60;99.90;;;;;;4858737;29;20492;-78
2021/07/20 01:30:56;;;;;;;15.90;10.60;;;15.70;99.90;;;;;;4873527;29;20599;-79
2021/07/20 01:33:26;;;;;;;16.37;10.43;;;15.50;99.90;;;;;;4858436;29;20483;-80
2021/07/20 01:35:58;;;;;;;15.70;11.23;;;15.50;99.90;;;;;;4859315;29;20879;-79
2021/07/20 01:38:27;;;;;;;12.33;9.03;;;15.50;99.90;;;;;;4858065;29;21053;-79
2021/07/20 01:41:00;;;;;;;15.00;10.73;;;15.40;99.90;;;;;;4858539;29;20488;-80
2021/07/20 01:43:30;;;;;;;13.00;10.00;;;15.50;99.90;;;;;;4858215;29;20460;-79
2021/07/20 01:45:59;;;;;;;17.07;11.20;;;15.40;99.90;;;;;;4857640;29;20843;-79
2021/07/20 01:48:34;;;;;;;15.30;10.33;;;15.40;99.90;;;;;;4859144;29;20443;-79
2021/07/20 01:51:07;;;;;;;16.90;10.33;;;15.30;99.90;;;;;;4857982;29;20464;-79
2021/07/20 01:53:37;;;;;;;22.80;10.93;;;15.40;99.90;;;;;;4857919;29;20452;-79
2021/07/20 01:56:08;;;;;;;16.80;11.50;;;15.30;99.90;;;;;;4858801;29;20910;-79
2021/07/20 01:58:42;;;;;;;15.23;11.27;;;15.30;99.90;;;;;;4857846;29;20872;-77
2021/07/20 02:01:36;;;;;;;14.87;10.47;;;15.20;99.90;;;;;;4859104;29;20559;-79
2021/07/20 02:09:54;;;;;;;13.77;10.57;;;15.10;99.90;;;;;;4874019;29;20471;-79
2021/07/20 02:12:32;;;;;;;14.77;10.27;;;15.10;99.90;;;;;;4859886;29;20468;-79
2021/07/20 02:15:14;;;;;;;17.83;11.00;;;15.10;99.90;;;;;;4861500;29;20478;-78
2021/07/20 02:18:01;;;;;;;18.07;11.20;;;15.00;99.90;;;;;;4881464;29;20451;-79
2021/07/20 02:20:31;;;;;;;14.73;9.73;;;15.00;99.90;;;;;;4880760;29;20467;-79
2021/07/20 02:23:07;;;;;;;16.13;11.03;;;14.90;99.90;;;;;;4882466;29;20486;-79
2021/07/20 02:25:40;;;;;;;17.60;10.47;;;14.90;99.90;;;;;;4876479;29;20482;-79
2021/07/20 02:28:24;;;;;;;13.73;10.10;;;14.90;99.90;;;;;;4863110;29;20453;-78
2021/07/20 02:30:52;;;;;;;14.93;9.50;;;14.90;99.90;;;;;;4862814;29;20527;-78
2021/07/20 02:33:20;;;;;;;15.67;11.60;;;14.90;99.90;;;;;;4873599;29;20875;-78
2021/07/20 02:35:50;;;;;;;18.47;10.70;;;14.90;99.90;;;;;;4881292;29;20478;-79
2021/07/20 02:38:32;;;;;;;19.03;11.70;;;14.90;99.90;;;;;;4880152;29;20543;-78
2021/07/20 02:41:01;;;;;;;14.60;10.27;;;14.80;99.90;;;;;;4863335;29;20611;-79
2021/07/20 02:43:29;;;;;;;15.23;11.10;;;14.80;99.90;;;;;;4862647;29;20502;-78
2021/07/20 02:45:58;;;;;;;17.33;10.33;;;14.80;99.90;;;;;;4862506;29;20452;-78
2021/07/20 02:48:25;;;;;;;14.53;9.80;;;14.80;99.90;;;;;;4862181;29;20421;-79
2021/07/20 02:50:53;;;;;;;16.50;10.63;;;14.80;99.90;;;;;;4861866;29;20538;-79
2021/07/20 02:53:28;;;;;;;19.70;10.83;;;14.80;99.90;;;;;;4861794;29;20455;-80
2021/07/20 02:56:04;;;;;;;19.63;11.63;;;14.80;99.90;;;;;;4877751;29;20980;-79
2021/07/20 02:58:39;;;;;;;15.80;10.80;;;14.80;99.90;;;;;;4880275;29;20866;-79
2021/07/20 03:01:07;;;;;;;14.07;9.87;;;14.70;99.90;;;;;;4878740;29;20516;-78
2021/07/20 03:03:36;;;;;;;13.40;8.97;;;14.70;99.90;;;;;;4874291;29;20948;-79
2021/07/20 03:06:08;;;;;;;15.30;9.33;;;14.70;99.90;;;;;;4878519;29;20511;-78
2021/07/20 03:08:37;;;;;;;16.63;10.97;;;14.70;99.90;;;;;;4880498;29;20475;-78
2021/07/20 03:11:15;;;;;;;14.50;10.50;;;14.60;99.90;;;;;;4875493;29;20981;-79
2021/07/20 03:13:48;;;;;;;13.13;8.90;;;14.60;99.90;;;;;;4861622;29;20453;-79
2021/07/20 03:16:17;;;;;;;12.40;10.17;;;14.60;99.90;;;;;;4865898;29;20430;-78
2021/07/20 03:18:47;;;;;;;18.10;11.70;;;14.50;99.90;;;;;;4883363;29;20514;-78
2021/07/20 03:21:15;;;;;;;15.13;10.40;;;14.50;99.90;;;;;;4879807;29;20444;-78
2021/07/20 03:23:44;;;;;;;13.77;8.57;;;14.50;99.90;;;;;;4894277;29;20844;-79
2021/07/20 03:26:12;;;;;;;21.93;12.30;;;14.50;99.90;;;;;;4861132;29;20444;-78
2021/07/20 03:28:41;;;;;;;17.40;10.83;;;14.50;99.90;;;;;;4859265;29;20433;-78
2021/07/20 03:31:15;;;;;;;16.20;10.30;;;14.40;99.90;;;;;;4860409;29;20435;-79
2021/07/20 03:33:43;;;;;;;19.07;11.90;;;14.40;99.90;;;;;;4859782;29;21029;-78
2021/07/20 03:36:20;;;;;;;16.00;11.47;;;14.40;99.90;;;;;;4861231;29;20463;-78
2021/07/20 03:38:49;;;;;;;18.57;11.30;;;14.40;99.90;;;;;;4860820;29;20416;-79
2021/07/20 03:41:16;;;;;;;20.83;11.00;;;14.40;99.90;;;;;;4893744;29;20800;-78
2021/07/20 03:43:47;;;;;;;17.70;10.77;;;14.40;99.90;;;;;;4877989;29;20480;-79
2021/07/20 03:46:15;;;;;;;13.93;10.57;;;14.40;99.90;;;;;;4859535;29;20454;-78
2021/07/20 03:48:44;;;;;;;17.73;11.40;;;14.50;99.90;;;;;;4862986;29;20948;-78
2021/07/20 03:51:25;;;;;;;17.10;11.27;;;14.40;99.90;;;;;;4861688;29;20477;-79
2021/07/20 03:53:53;;;;;;;17.37;11.00;;;14.40;99.90;;;;;;4883240;29;20502;-79
2021/07/20 03:56:21;;;;;;;18.60;11.40;;;14.40;99.90;;;;;;4862073;29;20446;-79
2021/07/20 03:58:56;;;;;;;15.53;11.27;;;14.40;99.90;;;;;;4861936;29;20404;-79
2021/07/20 04:01:32;;;;;;;15.20;10.80;;;14.40;99.90;;;;;;4846663;29;20439;-79
2021/07/20 04:04:01;;;;;;;15.13;10.70;;;14.40;99.90;;;;;;4878111;29;20463;-79
2021/07/20 04:06:48;;;;;;;19.30;12.60;;;14.40;99.90;;;;;;4879674;29;20424;-79
2021/07/20 04:09:24;;;;;;;18.60;12.00;;;14.40;99.90;;;;;;4873889;29;20888;-79
2021/07/20 04:12:13;;;;;;;18.10;11.60;;;14.30;99.90;;;;;;4887266;29;20496;-79
2021/07/20 04:15:01;;;;;;;15.50;11.07;;;14.30;99.90;;;;;;4858918;29;20468;-79
2021/07/20 04:17:35;;;;;;;15.07;11.00;;;14.30;99.90;;;;;;4859575;29;20454;-79
2021/07/20 04:20:04;;;;;;;17.33;10.07;;;14.20;99.90;;;;;;4860323;29;20467;-79
2021/07/20 04:22:33;;;;;;;15.93;12.80;;;14.20;99.90;;;;;;4859016;29;20510;-79
2021/07/20 04:25:04;;;;;;;16.27;11.00;;;14.20;99.90;;;;;;4859829;29;20482;-79
2021/07/20 04:27:38;;;;;;;15.00;11.23;;;14.20;99.90;;;;;;4859006;29;20438;-78
2021/07/20 04:30:11;;;;;;;15.60;11.37;;;14.20;99.90;;;;;;4860075;29;20466;-79
2021/07/20 04:32:47;;;;;;;11.77;9.50;;;14.30;99.90;;;;;;4858968;29;20450;-78
2021/07/20 04:35:19;;;;;;;19.70;11.87;;;14.30;99.90;;;;;;4853269;29;20537;-79
2021/07/20 04:38:10;;;;;;;15.40;11.27;;;14.30;99.90;;;;;;4859679;29;20432;-79
2021/07/20 04:40:40;;;;;;;14.10;11.30;;;14.30;99.90;;;;;;4872603;29;20573;-79
2021/07/20 04:43:08;;;;;;;22.90;11.53;;;14.30;99.90;;;;;;4878359;29;20545;-78
2021/07/20 04:45:37;;;;;;;20.37;11.50;;;14.30;99.90;;;;;;4878307;29;20474;-80
2021/07/20 04:48:07;;;;;;;18.70;12.33;;;14.40;99.90;;;;;;4876665;29;20454;-78
2021/07/20 04:50:44;;;;;;;23.13;11.40;;;14.40;99.90;;;;;;4860091;29;20604;-79
2021/07/20 04:53:18;;;;;;;17.77;12.37;;;14.40;99.90;;;;;;4874717;29;21050;-78
2021/07/20 04:55:49;;;;;;;16.20;11.13;;;14.40;99.90;;;;;;4859561;29;20494;-80
2021/07/20 04:58:22;;;;;;;16.20;11.80;;;14.50;99.90;;;;;;4874678;29;20527;-78
2021/07/20 05:00:53;;;;;;;15.67;11.97;;;14.60;99.90;;;;;;4859926;29;20554;-79
2021/07/20 05:03:24;;;;;;;20.60;12.37;;;14.60;99.90;;;;;;4858952;29;20515;-79
2021/07/20 05:05:57;;;;;;;16.40;12.33;;;14.70;99.90;;;;;;4873709;29;20475;-79
2021/07/20 05:08:32;;;;;;;14.63;11.60;;;14.70;99.90;;;;;;4859489;29;20506;-79
2021/07/20 05:11:01;;;;;;;16.80;11.70;;;14.80;99.90;;;;;;4859501;29;20508;-78
2021/07/20 05:13:34;;;;;;;19.13;12.30;;;15.00;99.90;;;;;;4860048;29;20518;-79
2021/07/20 05:16:05;;;;;;;20.33;13.00;;;15.00;99.90;;;;;;4863387;29;20458;-78
2021/07/20 05:18:46;;;;;;;15.30;11.70;;;15.10;99.90;;;;;;4878735;29;20438;-80
2021/07/20 05:21:45;;;;;;;18.57;13.83;;;15.10;99.90;;;;;;4859348;29;20788;-79
2021/07/20 05:24:18;;;;;;;18.90;11.30;;;15.10;99.90;;;;;;4855319;29;20490;-78
2021/07/20 05:27:01;;;;;;;17.57;13.17;;;15.20;99.90;;;;;;4858200;29;20455;-79
2021/07/20 05:29:34;;;;;;;14.27;11.73;;;15.20;99.90;;;;;;4860219;29;20463;-78
2021/07/20 05:32:20;;;;;;;20.57;12.40;;;15.30;99.90;;;;;;4860495;29;20448;-79
2021/07/20 05:34:51;;;;;;;19.57;12.40;;;15.40;99.90;;;;;;4861431;29;20533;-79
2021/07/20 05:37:19;;;;;;;17.93;11.53;;;15.40;99.90;;;;;;4875557;29;20440;-78
2021/07/20 05:39:53;;;;;;;19.37;12.77;;;15.50;99.90;;;;;;4860767;29;20472;-79
2021/07/20 05:42:39;;;;;;;19.80;12.87;;;15.50;99.90;;;;;;4859197;29;20479;-79
2021/07/20 05:45:42;;;;;;;19.83;12.60;;;15.60;99.90;;;;;;4859558;29;20901;-79
2021/07/20 05:48:21;;;;;;;18.47;11.60;;;15.70;99.90;;;;;;4862721;29;20959;-78
2021/07/20 05:50:54;;;;;;;19.90;14.07;;;15.70;99.90;;;;;;4874932;29;20970;-79
2021/07/20 05:53:31;;;;;;;22.97;14.10;;;15.80;99.90;;;;;;4861796;29;20529;-79
2021/07/20 05:56:28;;;;;;;23.03;13.67;;;15.80;99.90;;;;;;4870234;29;20444;-79
2021/07/20 05:59:05;;;;;;;20.70;13.17;;;15.90;99.90;;;;;;4861466;29;20467;-79
2021/07/20 06:01:42;;;;;;;18.63;11.63;;;16.00;99.90;;;;;;4861677;29;20527;-79
2021/07/20 06:04:19;;;;;;;19.93;12.53;;;16.10;99.90;;;;;;4861380;29;20483;-79
2021/07/20 06:06:49;;;;;;;26.47;14.50;;;16.40;99.90;;;;;;4863032;29;20424;-79
2021/07/20 06:09:24;;;;;;;23.33;13.13;;;16.80;99.90;;;;;;4862067;29;20470;-78
2021/07/20 06:12:01;;;;;;;21.00;12.87;;;17.20;99.90;;;;;;4872349;29;20534;-78
2021/07/20 06:14:31;;;;;;;20.87;12.87;;;17.60;99.90;;;;;;4880682;29;20977;-79
2021/07/20 06:17:07;;;;;;;19.17;14.13;;;18.00;99.90;;;;;;4881186;29;20770;-79
2021/07/20 06:19:38;;;;;;;21.20;14.43;;;18.30;99.90;;;;;;4872956;29;20505;-79
2021/07/20 06:22:09;;;;;;;21.20;14.90;;;18.50;99.90;;;;;;4868184;29;20513;-79
2021/07/20 06:24:49;;;;;;;22.00;14.40;;;18.90;99.90;;;;;;4875259;29;20494;-80
2021/07/20 06:27:22;;;;;;;26.50;14.87;;;19.20;99.90;;;;;;4861086;29;20441;-80
2021/07/20 06:29:54;;;;;;;23.30;14.47;;;19.30;99.90;;;;;;4860995;29;20477;-80
2021/07/20 06:32:23;;;;;;;19.73;13.57;;;19.50;99.90;;;;;;4865589;29;20457;-80
2021/07/20 06:34:53;;;;;;;24.13;15.67;;;19.60;99.90;;;;;;4861389;29;20478;-80
2021/07/20 06:37:21;;;;;;;24.93;14.73;;;19.70;99.90;;;;;;4861033;29;20467;-79
2021/07/20 06:39:56;;;;;;;23.07;16.40;;;19.60;99.90;;;;;;4864917;29;20492;-80
2021/07/20 06:42:26;;;;;;;22.10;14.90;;;19.60;99.90;;;;;;4864469;29;21036;-79
2021/07/20 06:44:54;;;;;;;24.57;14.50;;;19.70;99.90;;;;;;4878746;29;20862;-80
2021/07/20 06:47:24;;;;;;;21.47;14.10;;;19.60;99.90;;;;;;4875721;29;20828;-79
2021/07/20 06:49:57;;;;;;;24.03;15.73;;;19.50;99.90;;;;;;4875725;29;20495;-79
2021/07/20 06:52:29;;;;;;;21.40;15.37;;;19.50;99.90;;;;;;4877314;29;20801;-79
2021/07/20 06:55:00;;;;;;;21.73;15.37;;;19.40;99.90;;;;;;4870478;29;20492;-77
2021/07/20 06:57:28;;;;;;;23.27;14.23;;;19.40;99.90;;;;;;4860444;29;20446;-78
2021/07/20 06:59:57;;;;;;;25.40;15.67;;;19.30;99.90;;;;;;4875229;29;20992;-79
2021/07/20 07:02:29;;;;;;;24.77;14.77;;;19.30;99.90;;;;;;4861228;29;20497;-79
2021/07/20 07:05:12;;;;;;;22.70;14.80;;;19.30;99.90;;;;;;4859230;29;20558;-79
2021/07/20 07:07:46;;;;;;;21.43;14.67;;;19.40;99.90;;;;;;4860087;29;20442;-79
2021/07/20 07:10:17;;;;;;;26.93;17.20;;;19.40;99.90;;;;;;4867073;29;20477;-78
2021/07/20 07:12:46;;;;;;;23.47;15.87;;;19.40;99.90;;;;;;4846779;29;20920;-78
2021/07/20 07:15:14;;;;;;;26.40;16.37;;;19.50;99.90;;;;;;4881450;29;20478;-79
2021/07/20 07:17:47;;;;;;;21.93;14.03;;;19.60;99.90;;;;;;4874920;29;20826;-79
2021/07/20 07:20:17;;;;;;;22.70;15.63;;;19.60;99.90;;;;;;4859498;29;20543;-79
2021/07/20 07:22:49;;;;;;;21.13;13.50;;;19.70;99.90;;;;;;4859919;29;21015;-80
2021/07/20 07:25:24;;;;;;;19.13;13.23;;;19.80;99.90;;;;;;4860745;29;20900;-79
2021/07/20 07:27:55;;;;;;;20.17;13.47;;;19.90;99.90;;;;;;4861432;29;20881;-79
2021/07/20 07:30:31;;;;;;;17.70;13.80;;;19.90;99.70;;;;;;4875004;29;20496;-80
2021/07/20 07:33:03;;;;;;;22.80;14.50;;;19.80;99.60;;;;;;4892239;29;20447;-78
2021/07/20 07:35:45;;;;;;;23.87;14.93;;;19.80;99.90;;;;;;4877250;29;20876;-79
2021/07/20 07:38:14;;;;;;;23.60;14.17;;;19.90;99.00;;;;;;4879521;29;20494;-79
2021/07/20 07:40:42;;;;;;;18.37;12.37;;;20.00;98.70;;;;;;4882862;29;21007;-80
2021/07/20 07:43:14;;;;;;;23.20;13.90;;;19.90;98.80;;;;;;4878869;29;20990;-80
2021/07/20 07:45:45;;;;;;;17.93;13.20;;;19.90;98.30;;;;;;4878550;29;20514;-79
2021/07/20 07:48:17;;;;;;;25.20;15.00;;;20.10;99.00;;;;;;4878709;29;20504;-79
2021/07/20 07:50:55;;;;;;;19.50;14.20;;;20.10;99.10;;;;;;4878850;29;20468;-80
2021/07/20 07:53:26;;;;;;;20.50;13.23;;;20.20;98.10;;;;;;4860851;29;20480;-79
2021/07/20 07:55:55;;;;;;;18.03;12.00;;;20.30;97.20;;;;;;4858969;29;20567;-78
2021/07/20 07:58:29;;;;;;;21.77;13.07;;;20.40;96.10;;;;;;4860665;29;20477;-79
2021/07/20 08:00:59;;;;;;;21.97;14.90;;;20.50;94.90;;;;;;4858929;29;20906;-80
2021/07/20 08:03:31;;;;;;;19.93;13.27;;;20.70;93.80;;;;;;4863595;29;20483;-79
2021/07/20 08:06:04;;;;;;;16.77;11.70;;;20.80;92.90;;;;;;4878781;29;20468;-79
2021/07/20 08:08:40;;;;;;;21.53;13.07;;;20.80;91.00;;;;;;4865691;29;20937;-79
2021/07/20 08:11:12;;;;;;;17.47;12.27;;;20.80;92.00;;;;;;4878312;29;20454;-80
2021/07/20 08:13:43;;;;;;;19.17;12.50;;;20.90;91.80;;;;;;4877741;29;20460;-79
2021/07/20 08:16:15;;;;;;;15.97;11.90;;;20.90;91.90;;;;;;4879230;29;20526;-79
2021/07/20 08:18:48;;;;;;;21.23;12.13;;;20.90;92.00;;;;;;4871233;29;20448;-79
2021/07/20 08:21:21;;;;;;;19.23;11.60;;;21.20;91.40;;;;;;4874635;29;20444;-80
2021/07/20 08:23:52;;;;;;;17.50;11.67;;;21.40;90.30;;;;;;4843745;29;20479;-79
2021/07/20 08:26:39;;;;;;;17.57;13.00;;;21.50;89.10;;;;;;4874198;29;20427;-80
2021/07/20 08:29:12;;;;;;;15.80;11.70;;;21.50;90.10;;;;;;4859664;29;20941;-79
2021/07/20 08:31:46;;;;;;;26.13;14.50;;;21.70;87.70;;;;;;4874503;29;20509;-78
2021/07/20 08:34:20;;;;;;;15.93;12.07;;;21.70;88.60;;;;;;4861158;29;20484;-79
2021/07/20 08:36:56;;;;;;;17.10;13.23;;;21.80;87.70;;;;;;4874293;29;20430;-79
2021/07/20 08:39:30;;;;;;;23.47;12.53;;;21.80;90.10;;;;;;4857936;29;20467;-78
2021/07/20 08:42:40;;;;;;;22.87;12.23;;;21.90;87.40;;;;;;4874398;29;20438;-78
2021/07/20 08:45:23;;;;;;;14.73;12.60;;;21.90;87.80;;;;;;4862230;29;20542;-80
2021/07/20 08:48:37;;;;;;;17.20;13.00;;;22.00;82.40;;;;;;4858717;29;20443;-79
2021/07/20 08:51:15;;;;;;;16.90;12.43;;;21.90;82.40;;;;;;4841993;29;20480;-79
2021/07/20 08:54:00;;;;;;;17.13;12.00;;;21.90;85.50;;;;;;4857374;29;20470;-80
2021/07/20 08:56:28;;;;;;;19.60;12.80;;;22.00;84.50;;;;;;4859863;29;20937;-80
2021/07/20 08:59:06;;;;;;;15.17;13.23;;;22.10;81.90;;;;;;4872959;29;20531;-80
2021/07/20 09:02:06;;;;;;;17.27;11.67;;;22.30;82.70;;;;;;4859830;29;20493;-79
2021/07/20 09:05:16;;;;;;;14.83;11.33;;;22.20;80.70;;;;;;4849325;29;20469;-80
2021/07/20 09:08:15;;;;;;;14.33;11.47;;;22.30;81.60;;;;;;4886015;29;20431;-80
2021/07/20 09:11:12;;;;;;;16.20;11.90;;;22.30;82.90;;;;;;4879198;29;20474;-80
2021/07/20 09:14:10;;;;;;;17.23;13.17;;;22.50;76.10;;;;;;4876342;29;20458;-79
2021/07/20 09:16:45;;;;;;;17.17;13.43;;;22.50;74.30;;;;;;4878123;29;20426;-80
2021/07/20 09:19:58;;;;;;;15.60;10.90;;;22.40;75.30;;;;;;4872718;29;20478;-79
2021/07/20 09:22:33;;;;;;;15.57;11.83;;;22.40;74.10;;;;;;4859428;29;20433;-79
2021/07/20 09:25:13;;;;;;;15.40;10.90;;;22.40;73.50;;;;;;4875034;29;20530;-80
2021/07/20 09:28:02;;;;;;;13.20;9.70;;;22.20;76.60;;;;;;4861972;29;20965;-80
2021/07/20 09:30:43;;;;;;;13.23;11.77;;;22.10;77.20;;;;;;4852655;29;20837;-79
2021/07/20 09:33:31;;;;;;;15.10;11.07;;;22.10;80.70;;;;;;4873424;29;20556;-80
2021/07/20 09:36:02;;;;;;;15.40;11.47;;;22.10;76.40;;;;;;4862708;29;20508;-78
2021/07/20 09:38:55;;;;;;;15.87;10.30;;;22.20;69.30;;;;;;4862877;29;20426;-80
2021/07/20 09:41:34;;;;;;;12.97;10.13;;;22.20;76.30;;;;;;4877814;29;20457;-80
2021/07/20 09:44:17;;;;;;;12.90;9.97;;;22.30;76.40;;;;;;4879826;29;20480;-80
2021/07/20 09:47:11;;;;;;;14.90;10.40;;;22.40;74.20;;;;;;4880617;29;20528;-79
2021/07/20 09:49:38;;;;;;;14.77;11.00;;;22.30;71.40;;;;;;4864289;29;20811;-80
2021/07/20 09:52:13;;;;;;;16.43;11.60;;;22.30;73.40;;;;;;4861761;29;21112;-80
2021/07/20 09:55:00;;;;;;;16.30;12.53;;;22.30;72.60;;;;;;4862392;29;20493;-80
2021/07/20 09:57:58;;;;;;;13.23;11.37;;;22.20;71.30;;;;;;4862848;29;20431;-80
2021/07/20 10:00:50;;;;;;;16.80;11.93;;;22.30;69.70;;;;;;4876648;29;20506;-80
2021/07/20 10:03:32;;;;;;;15.67;12.93;;;22.40;71.50;;;;;;4871040;29;20483;-79
2021/07/20 10:06:17;;;;;;;14.37;11.67;;;22.40;69.70;;;;;;4862047;29;20552;-80
2021/07/20 10:09:29;;;;;;;16.30;12.00;;;22.40;71.90;;;;;;4861507;29;20439;-81
2021/07/20 10:12:31;;;;;;;14.60;11.50;;;22.40;71.40;;;;;;4860959;29;20445;-80
2021/07/20 10:15:10;;;;;;;15.37;11.50;;;22.50;72.50;;;;;;4862090;29;20539;-80
2021/07/20 10:18:01;;;;;;;16.60;11.47;;;22.70;67.20;;;;;;4861342;29;20993;-80
2021/07/20 10:20:41;;;;;;;14.83;11.20;;;22.90;66.70;;;;;;4862101;29;20523;-79
2021/07/20 10:23:17;;;;;;;17.60;12.50;;;23.20;67.00;;;;;;4861353;29;20479;-80
2021/07/20 10:26:32;;;;;;;16.63;12.30;;;23.30;68.90;;;;;;4861187;29;20477;-80
2021/07/20 10:29:25;;;;;;;17.50;12.00;;;23.50;67.20;;;;;;4867262;29;20465;-80
2021/07/20 10:32:36;;;;;;;15.20;11.70;;;23.60;65.30;;;;;;4881190;29;20446;-80
2021/07/20 10:35:15;;;;;;;14.33;10.37;;;23.60;65.00;;;;;;4861687;29;20499;-80
2021/07/20 10:37:48;;;;;;;12.63;11.30;;;23.70;57.40;;;;;;4861454;29;20426;-79
2021/07/20 10:40:18;;;;;;;16.67;12.03;;;23.60;58.30;;;;;;4861363;29;20827;-79
2021/07/20 10:43:05;;;;;;;15.47;12.43;;;23.60;58.10;;;;;;4862402;29;20514;-79
2021/07/20 10:45:38;;;;;;;13.67;12.10;;;23.70;60.00;;;;;;4868129;29;20476;-79
2021/07/20 10:48:26;;;;;;;16.93;13.00;;;23.80;61.70;;;;;;4879998;29;20488;-78
2021/07/20 10:50:56;;;;;;;13.57;11.50;;;23.80;65.50;;;;;;4880260;29;20529;-79
2021/07/20 10:53:56;;;;;;;12.30;11.00;;;23.90;63.00;;;;;;4879209;29;20476;-80
2021/07/20 10:56:41;;;;;;;21.40;12.60;;;24.00;56.80;;;;;;4876205;29;20482;-78
2021/07/20 10:59:18;;;;;;;12.50;11.20;;;24.00;58.90;;;;;;4861216;29;20490;-78
2021/07/20 11:02:02;;;;;;;13.70;11.30;;;24.10;61.70;;;;;;4861860;29;20427;-79
2021/07/20 11:04:51;;;;;;;15.73;12.90;;;24.20;65.90;;;;;;4874695;29;20546;-79
2021/07/20 11:07:56;;;;;;;14.30;11.37;;;24.40;60.80;;;;;;4860060;29;20942;-78
2021/07/20 11:10:41;;;;;;;13.93;11.83;;;24.20;63.90;;;;;;4860143;29;20550;-79
2021/07/20 11:13:20;;;;;;;11.93;10.13;;;24.10;67.70;;;;;;4879963;29;20501;-78
2021/07/20 11:15:53;;;;;;;16.30;10.20;;;24.20;61.10;;;;;;4879142;29;20501;-79
2021/07/20 11:18:26;;;;;;;12.60;11.30;;;24.40;56.80;;;;;;4879850;29;20425;-80
2021/07/20 11:20:59;;;;;;;18.87;12.60;;;24.20;55.40;;;;;;4879272;29;20838;-79
2021/07/20 11:23:29;;;;;;;12.07;10.33;;;24.20;56.10;;;;;;4879841;29;20992;-79
2021/07/20 11:26:03;;;;;;;14.13;10.13;;;24.10;55.40;;;;;;4862361;29;20486;-79
2021/07/20 11:28:33;;;;;;;13.40;10.73;;;24.10;59.80;;;;;;4861130;29;20431;-78
2021/07/20 11:31:09;;;;;;;16.23;11.50;;;24.10;59.10;;;;;;4860738;29;20462;-80
2021/07/20 11:33:47;;;;;;;12.57;10.80;;;24.10;60.00;;;;;;4873591;29;20533;-79
2021/07/20 11:36:20;;;;;;;13.10;10.20;;;24.30;58.80;;;;;;4859952;29;20530;-79
2021/07/20 11:38:58;;;;;;;12.00;10.77;;;24.50;56.70;;;;;;4858925;29;20542;-80
2021/07/20 11:41:25;;;;;;;11.43;10.27;;;24.60;53.20;;;;;;4860191;29;20815;-80
2021/07/20 11:44:20;;;;;;;12.27;10.87;;;24.60;56.20;;;;;;4860351;29;20481;-80
2021/07/20 11:46:51;;;;;;;14.40;11.13;;;24.60;58.10;;;;;;4875137;29;21034;-80
2021/07/20 11:49:37;;;;;;;17.13;11.90;;;24.60;58.30;;;;;;4860204;29;20475;-80
2021/07/20 11:52:15;;;;;;;15.70;11.37;;;24.70;55.80;;;;;;4875194;29;20539;-80
2021/07/20 11:55:28;;;;;;;17.07;14.10;;;24.80;55.10;;;;;;4862281;29;20498;-80
2021/07/20 11:58:16;;;;;;;16.10;12.27;;;25.00;53.90;;;;;;4858168;29;20458;-79
2021/07/20 12:01:06;;;;;;;15.17;11.93;;;25.00;54.00;;;;;;4860198;29;20475;-81
2021/07/20 12:04:03;;;;;;;15.23;11.47;;;25.00;55.40;;;;;;4876230;29;20820;-79
2021/07/20 12:07:03;;;;;;;17.93;11.43;;;25.00;54.80;;;;;;4879108;29;20834;-79
2021/07/20 12:10:22;;;;;;;13.30;11.17;;;25.10;53.90;;;;;;4878037;29;20478;-80
2021/07/20 12:12:57;;;;;;;12.67;11.33;;;25.20;57.90;;;;;;4875896;29;20435;-81
2021/07/20 12:15:30;;;;;;;16.00;13.90;;;25.40;55.90;;;;;;4877366;29;20823;-81
2021/07/20 12:18:02;;;;;;;15.33;12.07;;;25.40;52.90;;;;;;4866111;29;20444;-79
2021/07/20 12:20:29;;;;;;;18.00;12.47;;;25.20;52.60;;;;;;4868252;29;20497;-80
2021/07/20 12:22:58;;;;;;;15.83;14.00;;;25.20;54.10;;;;;;4877535;29;20439;-78
2021/07/20 12:25:26;;;;;;;15.73;12.63;;;25.10;54.80;;;;;;4873684;29;20487;-80
2021/07/20 12:27:58;;;;;;;16.70;13.57;;;25.10;54.50;;;;;;4860240;29;20437;-80
2021/07/20 12:30:30;;;;;;;15.33;13.07;;;25.20;57.00;;;;;;4859232;29;20476;-80
2021/07/20 12:32:59;;;;;;;15.03;13.60;;;25.30;55.00;;;;;;4860246;29;20516;-82
2021/07/20 12:35:29;;;;;;;18.27;15.10;;;25.30;54.50;;;;;;4860234;29;20470;-81
2021/07/20 12:38:08;;;;;;;13.13;11.47;;;25.40;54.10;;;;;;4860004;29;20531;-80
2021/07/20 12:40:40;;;;;;;14.43;12.60;;;25.40;53.20;;;;;;4850893;29;20859;-81
2021/07/20 12:43:21;;;;;;;20.90;14.17;;;25.30;53.20;;;;;;4874145;29;21071;-80
2021/07/20 12:45:49;;;;;;;17.93;14.20;;;25.30;54.20;;;;;;4873724;29;20468;-79
2021/07/20 12:48:28;;;;;;;16.10;13.57;;;25.40;54.60;;;;;;4870585;29;20454;-79
2021/07/20 12:50:57;;;;;;;16.83;12.70;;;25.40;57.00;;;;;;4876885;29;20467;-80
2021/07/20 12:53:30;;;;;;;16.70;14.10;;;25.40;55.40;;;;;;4877266;29;20455;-80
2021/07/20 12:56:00;;;;;;;17.23;13.43;;;25.40;55.80;;;;;;4874050;29;20537;-80
2021/07/20 12:58:34;;;;;;;14.50;13.00;;;25.40;53.30;;;;;;4876858;29;20455;-81
2021/07/20 13:01:03;;;;;;;29.73;16.17;;;25.30;52.10;;;;;;4861357;29;20467;-81
2021/07/20 13:03:34;;;;;;;18.60;13.63;;;25.30;53.20;;;;;;4874750;29;20511;-81
2021/07/20 13:06:08;;;;;;;41.97;20.80;;;25.30;52.30;;;;;;4858289;29;20540;-79
2021/07/20 13:08:35;;;;;;;15.17;13.57;;;25.30;56.20;;;;;;4858227;29;20543;-81
2021/07/20 13:11:05;;;;;;;16.47;13.20;;;25.30;50.60;;;;;;4860014;29;20448;-81
2021/07/20 13:13:34;;;;;;;21.73;14.00;;;25.30;52.70;;;;;;4860450;29;20464;-80
2021/07/20 13:16:06;;;;;;;16.20;13.90;;;25.40;54.20;;;;;;4882505;29;21150;-80
2021/07/20 13:18:36;;;;;;;17.30;14.57;;;25.40;54.10;;;;;;4886311;29;20446;-80